<?xml version="1.0" encoding="utf-8"?>
<gpx xmlns:xsi="http://www.w3.org/2001/XMLSchema-instance" xmlns:xsd="http://www.w3.org/2001/XMLSchema" version="1.1" creator="Shapelink.com" xmlns="http://www.topografix.com/GPX/1/1" xmlns:gpxtpx="http://www.garmin.com/xmlschemas/TrackPointExtension/v1">
  <metadata>
    <name>Löpning 4.40 km, 2019-10-22</name>
    <desc></desc>
    <author><name>Bengt Norberg</name></author> 
    <time>2019-10-22T17:17:02Z</time>
  </metadata>
  <trk>
    <name>Löpning 4.40 km, 2019-10-22</name>
    <trkseg>
      <trkpt lat="59.820052130329" lon="16.98504276507">
        <ele>43.2</ele>
        <time>2019-10-22T17:17:02Z</time>
      </trkpt>
      <trkpt lat="59.819863872855" lon="16.985093475565">
        <ele>42.2</ele>
        <time>2019-10-22T17:17:11Z</time>
      </trkpt>
      <trkpt lat="59.819684164919" lon="16.98515256796">
        <ele>42.2</ele>
        <time>2019-10-22T17:17:18Z</time>
      </trkpt>
      <trkpt lat="59.819547204673" lon="16.985193052537">
        <ele>42.4</ele>
        <time>2019-10-22T17:17:23Z</time>
      </trkpt>
      <trkpt lat="59.819431366815" lon="16.985267651447">
        <ele>41.6</ele>
        <time>2019-10-22T17:17:37Z</time>
      </trkpt>
      <trkpt lat="59.819481993491" lon="16.985652883571">
        <ele>40</ele>
        <time>2019-10-22T17:17:46Z</time>
      </trkpt>
      <trkpt lat="59.819534296547" lon="16.986045575586">
        <ele>38.8</ele>
        <time>2019-10-22T17:17:55Z</time>
      </trkpt>
      <trkpt lat="59.819612415855" lon="16.986391831875">
        <ele>37.8</ele>
        <time>2019-10-22T17:18:03Z</time>
      </trkpt>
      <trkpt lat="59.819664299816" lon="16.986761557484">
        <ele>35.8</ele>
        <time>2019-10-22T17:18:11Z</time>
      </trkpt>
      <trkpt lat="59.819723392211" lon="16.987151986386">
        <ele>34.6</ele>
        <time>2019-10-22T17:18:19Z</time>
      </trkpt>
      <trkpt lat="59.819773432154" lon="16.987536715596">
        <ele>32.2</ele>
        <time>2019-10-22T17:18:27Z</time>
      </trkpt>
      <trkpt lat="59.819817856224" lon="16.987881798419">
        <ele>32.2</ele>
        <time>2019-10-22T17:18:34Z</time>
      </trkpt>
      <trkpt lat="59.81988273213" lon="16.988253954779">
        <ele>31</ele>
        <time>2019-10-22T17:18:42Z</time>
      </trkpt>
      <trkpt lat="59.819944842009" lon="16.988637007609">
        <ele>31</ele>
        <time>2019-10-22T17:18:50Z</time>
      </trkpt>
      <trkpt lat="59.820012986856" lon="16.98900572739">
        <ele>32.4</ele>
        <time>2019-10-22T17:18:58Z</time>
      </trkpt>
      <trkpt lat="59.820055650727" lon="16.989259866598">
        <ele>31.2</ele>
        <time>2019-10-22T17:19:04Z</time>
      </trkpt>
      <trkpt lat="59.82015179112" lon="16.989265231014">
        <ele>30.8</ele>
        <time>2019-10-22T17:19:08Z</time>
      </trkpt>
      <trkpt lat="59.820338120757" lon="16.989152662097">
        <ele>30.2</ele>
        <time>2019-10-22T17:19:16Z</time>
      </trkpt>
      <trkpt lat="59.820530401543" lon="16.989052079297">
        <ele>30.8</ele>
        <time>2019-10-22T17:19:24Z</time>
      </trkpt>
      <trkpt lat="59.820721089768" lon="16.988962476786">
        <ele>31.2</ele>
        <time>2019-10-22T17:19:32Z</time>
      </trkpt>
      <trkpt lat="59.820904988654" lon="16.988865330565">
        <ele>31.4</ele>
        <time>2019-10-22T17:19:40Z</time>
      </trkpt>
      <trkpt lat="59.821092072662" lon="16.988765837412">
        <ele>32.2</ele>
        <time>2019-10-22T17:19:48Z</time>
      </trkpt>
      <trkpt lat="59.821280246317" lon="16.988668942648">
        <ele>32.6</ele>
        <time>2019-10-22T17:19:56Z</time>
      </trkpt>
      <trkpt lat="59.821469928714" lon="16.988578837223">
        <ele>33.2</ele>
        <time>2019-10-22T17:20:04Z</time>
      </trkpt>
      <trkpt lat="59.821657515636" lon="16.988479763165">
        <ele>33.8</ele>
        <time>2019-10-22T17:20:12Z</time>
      </trkpt>
      <trkpt lat="59.821841917436" lon="16.988356046321">
        <ele>34.6</ele>
        <time>2019-10-22T17:20:20Z</time>
      </trkpt>
      <trkpt lat="59.822024391399" lon="16.988222690292">
        <ele>35</ele>
        <time>2019-10-22T17:20:28Z</time>
      </trkpt>
      <trkpt lat="59.822211894502" lon="16.988095536869">
        <ele>35.6</ele>
        <time>2019-10-22T17:20:36Z</time>
      </trkpt>
      <trkpt lat="59.822398056501" lon="16.987990763119">
        <ele>36.4</ele>
        <time>2019-10-22T17:20:44Z</time>
      </trkpt>
      <trkpt lat="59.822581452473" lon="16.987872829786">
        <ele>37</ele>
        <time>2019-10-22T17:20:52Z</time>
      </trkpt>
      <trkpt lat="59.822763423522" lon="16.987764032724">
        <ele>37.4</ele>
        <time>2019-10-22T17:21:00Z</time>
      </trkpt>
      <trkpt lat="59.822948328236" lon="16.98764534502">
        <ele>37.6</ele>
        <time>2019-10-22T17:21:08Z</time>
      </trkpt>
      <trkpt lat="59.823131137475" lon="16.987522550185">
        <ele>38</ele>
        <time>2019-10-22T17:21:16Z</time>
      </trkpt>
      <trkpt lat="59.823316628922" lon="16.987408807802">
        <ele>38.4</ele>
        <time>2019-10-22T17:21:24Z</time>
      </trkpt>
      <trkpt lat="59.823503293835" lon="16.987287270252">
        <ele>38.8</ele>
        <time>2019-10-22T17:21:32Z</time>
      </trkpt>
      <trkpt lat="59.823692473318" lon="16.987171600032">
        <ele>39</ele>
        <time>2019-10-22T17:21:40Z</time>
      </trkpt>
      <trkpt lat="59.823877378032" lon="16.987075794915">
        <ele>39.2</ele>
        <time>2019-10-22T17:21:48Z</time>
      </trkpt>
      <trkpt lat="59.82406027109" lon="16.986981247083">
        <ele>39.2</ele>
        <time>2019-10-22T17:21:56Z</time>
      </trkpt>
      <trkpt lat="59.824246516908" lon="16.986868175252">
        <ele>39.6</ele>
        <time>2019-10-22T17:22:04Z</time>
      </trkpt>
      <trkpt lat="59.824439887341" lon="16.986821823345">
        <ele>38.8</ele>
        <time>2019-10-22T17:22:12Z</time>
      </trkpt>
      <trkpt lat="59.824639125104" lon="16.986736914698">
        <ele>38.6</ele>
        <time>2019-10-22T17:22:20Z</time>
      </trkpt>
      <trkpt lat="59.824829897148" lon="16.986645551988">
        <ele>38.2</ele>
        <time>2019-10-22T17:22:28Z</time>
      </trkpt>
      <trkpt lat="59.825018573717" lon="16.986527618655">
        <ele>37.8</ele>
        <time>2019-10-22T17:22:36Z</time>
      </trkpt>
      <trkpt lat="59.825213452892" lon="16.986422677267">
        <ele>38.4</ele>
        <time>2019-10-22T17:22:44Z</time>
      </trkpt>
      <trkpt lat="59.825411181913" lon="16.986333242394">
        <ele>38.4</ele>
        <time>2019-10-22T17:22:52Z</time>
      </trkpt>
      <trkpt lat="59.825602624509" lon="16.986229390653">
        <ele>38.2</ele>
        <time>2019-10-22T17:23:00Z</time>
      </trkpt>
      <trkpt lat="59.825793480372" lon="16.986105338533">
        <ele>38.6</ele>
        <time>2019-10-22T17:23:08Z</time>
      </trkpt>
      <trkpt lat="59.825984503873" lon="16.985984806811">
        <ele>38.8</ele>
        <time>2019-10-22T17:23:16Z</time>
      </trkpt>
      <trkpt lat="59.826310056869" lon="16.985771571275">
        <ele>38.4</ele>
        <time>2019-10-22T17:23:30Z</time>
      </trkpt>
      <trkpt lat="59.826500325999" lon="16.985705689541">
        <ele>38.8</ele>
        <time>2019-10-22T17:23:38Z</time>
      </trkpt>
      <trkpt lat="59.826676764994" lon="16.985759501339">
        <ele>38.8</ele>
        <time>2019-10-22T17:23:45Z</time>
      </trkpt>
      <trkpt lat="59.826880109888" lon="16.985810128015">
        <ele>38.2</ele>
        <time>2019-10-22T17:23:53Z</time>
      </trkpt>
      <trkpt lat="59.827079263832" lon="16.985865197098">
        <ele>38</ele>
        <time>2019-10-22T17:24:01Z</time>
      </trkpt>
      <trkpt lat="59.827263665632" lon="16.985889001694">
        <ele>38.2</ele>
        <time>2019-10-22T17:24:08Z</time>
      </trkpt>
      <trkpt lat="59.82745913154" lon="16.985838710294">
        <ele>37.2</ele>
        <time>2019-10-22T17:24:16Z</time>
      </trkpt>
      <trkpt lat="59.827637917467" lon="16.985674508873">
        <ele>37.4</ele>
        <time>2019-10-22T17:24:24Z</time>
      </trkpt>
      <trkpt lat="59.827810249331" lon="16.985484910295">
        <ele>37</ele>
        <time>2019-10-22T17:24:32Z</time>
      </trkpt>
      <trkpt lat="59.827967158499" lon="16.985261867936">
        <ele>38.2</ele>
        <time>2019-10-22T17:24:40Z</time>
      </trkpt>
      <trkpt lat="59.8281330363" lon="16.985078220507">
        <ele>37.8</ele>
        <time>2019-10-22T17:24:48Z</time>
      </trkpt>
      <trkpt lat="59.828307212182" lon="16.984945115935">
        <ele>37.2</ele>
        <time>2019-10-22T17:24:56Z</time>
      </trkpt>
      <trkpt lat="59.828426235162" lon="16.985225322852">
        <ele>36.8</ele>
        <time>2019-10-22T17:25:04Z</time>
      </trkpt>
      <trkpt lat="59.828432186311" lon="16.985602340714">
        <ele>38.6</ele>
        <time>2019-10-22T17:25:12Z</time>
      </trkpt>
      <trkpt lat="59.828269828908" lon="16.985770230171">
        <ele>39.8</ele>
        <time>2019-10-22T17:25:19Z</time>
      </trkpt>
      <trkpt lat="59.82810286146" lon="16.985918170706">
        <ele>38.8</ele>
        <time>2019-10-22T17:25:26Z</time>
      </trkpt>
      <trkpt lat="59.827932876528" lon="16.986119923039">
        <ele>38</ele>
        <time>2019-10-22T17:25:34Z</time>
      </trkpt>
      <trkpt lat="59.827766495813" lon="16.986272641257">
        <ele>37</ele>
        <time>2019-10-22T17:25:41Z</time>
      </trkpt>
      <trkpt lat="59.827584189488" lon="16.986448325881">
        <ele>36.8</ele>
        <time>2019-10-22T17:25:49Z</time>
      </trkpt>
      <trkpt lat="59.827422670275" lon="16.986651084042">
        <ele>37.2</ele>
        <time>2019-10-22T17:25:57Z</time>
      </trkpt>
      <trkpt lat="59.827468938363" lon="16.986993903752">
        <ele>36</ele>
        <time>2019-10-22T17:26:05Z</time>
      </trkpt>
      <trkpt lat="59.827582177832" lon="16.987333873616">
        <ele>40.2</ele>
        <time>2019-10-22T17:26:13Z</time>
      </trkpt>
      <trkpt lat="59.82767119361" lon="16.987623132985">
        <ele>42.4</ele>
        <time>2019-10-22T17:26:20Z</time>
      </trkpt>
      <trkpt lat="59.827695584939" lon="16.987766714932">
        <ele>37.8</ele>
        <time>2019-10-22T17:27:04Z</time>
      </trkpt>
      <trkpt lat="59.827796419196" lon="16.988114563782">
        <ele>37.2</ele>
        <time>2019-10-22T17:27:13Z</time>
      </trkpt>
      <trkpt lat="59.827898929833" lon="16.988439613864">
        <ele>39.8</ele>
        <time>2019-10-22T17:27:20Z</time>
      </trkpt>
      <trkpt lat="59.827992974751" lon="16.988756282046">
        <ele>41</ele>
        <time>2019-10-22T17:27:27Z</time>
      </trkpt>
      <trkpt lat="59.828089953334" lon="16.989098095928">
        <ele>42.4</ele>
        <time>2019-10-22T17:27:35Z</time>
      </trkpt>
      <trkpt lat="59.828105124573" lon="16.989145034568">
        <ele>42.2</ele>
        <time>2019-10-22T17:27:37Z</time>
      </trkpt>
      <trkpt lat="59.82803329169" lon="16.988955184533">
        <ele>40.4</ele>
        <time>2019-10-22T17:27:43Z</time>
      </trkpt>
      <trkpt lat="59.827906976457" lon="16.988642036749">
        <ele>36</ele>
        <time>2019-10-22T17:27:51Z</time>
      </trkpt>
      <trkpt lat="59.827779990672" lon="16.988341545634">
        <ele>35.4</ele>
        <time>2019-10-22T17:27:59Z</time>
      </trkpt>
      <trkpt lat="59.827687622134" lon="16.988001911046">
        <ele>35.2</ele>
        <time>2019-10-22T17:28:07Z</time>
      </trkpt>
      <trkpt lat="59.827595588872" lon="16.987643417183">
        <ele>35</ele>
        <time>2019-10-22T17:28:15Z</time>
      </trkpt>
      <trkpt lat="59.827502465963" lon="16.98733270015">
        <ele>34.4</ele>
        <time>2019-10-22T17:28:22Z</time>
      </trkpt>
      <trkpt lat="59.827432477098" lon="16.987000441634">
        <ele>34.8</ele>
        <time>2019-10-22T17:28:29Z</time>
      </trkpt>
      <trkpt lat="59.827380257861" lon="16.986667764023">
        <ele>35.2</ele>
        <time>2019-10-22T17:28:36Z</time>
      </trkpt>
      <trkpt lat="59.827426274492" lon="16.986517392737">
        <ele>34.4</ele>
        <time>2019-10-22T17:28:39Z</time>
      </trkpt>
      <trkpt lat="59.827603719315" lon="16.986331733652">
        <ele>34.2</ele>
        <time>2019-10-22T17:28:46Z</time>
      </trkpt>
      <trkpt lat="59.827764316519" lon="16.986170465896">
        <ele>35</ele>
        <time>2019-10-22T17:28:53Z</time>
      </trkpt>
      <trkpt lat="59.827929942863" lon="16.986010371606">
        <ele>35.2</ele>
        <time>2019-10-22T17:29:00Z</time>
      </trkpt>
      <trkpt lat="59.828110069894" lon="16.985841895416">
        <ele>35.8</ele>
        <time>2019-10-22T17:29:08Z</time>
      </trkpt>
      <trkpt lat="59.828279887188" lon="16.985692446139">
        <ele>34.8</ele>
        <time>2019-10-22T17:29:16Z</time>
      </trkpt>
      <trkpt lat="59.828427827723" lon="16.985483150096">
        <ele>34.2</ele>
        <time>2019-10-22T17:29:24Z</time>
      </trkpt>
      <trkpt lat="59.828367142767" lon="16.98514418606">
        <ele>33.4</ele>
        <time>2019-10-22T17:29:32Z</time>
      </trkpt>
      <trkpt lat="59.82835348027" lon="16.984858614727">
        <ele>33.8</ele>
        <time>2019-10-22T17:29:39Z</time>
      </trkpt>
      <trkpt lat="59.828534194034" lon="16.984689300347">
        <ele>34.4</ele>
        <time>2019-10-22T17:29:47Z</time>
      </trkpt>
      <trkpt lat="59.828713399056" lon="16.984525937116">
        <ele>34.2</ele>
        <time>2019-10-22T17:29:55Z</time>
      </trkpt>
      <trkpt lat="59.828877851934" lon="16.984298033255">
        <ele>35.6</ele>
        <time>2019-10-22T17:30:03Z</time>
      </trkpt>
      <trkpt lat="59.828979692019" lon="16.984033751948">
        <ele>37</ele>
        <time>2019-10-22T17:30:12Z</time>
      </trkpt>
      <trkpt lat="59.829096535705" lon="16.983752036289">
        <ele>37.8</ele>
        <time>2019-10-22T17:30:19Z</time>
      </trkpt>
      <trkpt lat="59.829221928929" lon="16.983447940957">
        <ele>37.2</ele>
        <time>2019-10-22T17:30:27Z</time>
      </trkpt>
      <trkpt lat="59.829351094008" lon="16.983160441787">
        <ele>35.4</ele>
        <time>2019-10-22T17:30:35Z</time>
      </trkpt>
      <trkpt lat="59.829491239376" lon="16.982879145223">
        <ele>34.8</ele>
        <time>2019-10-22T17:30:43Z</time>
      </trkpt>
      <trkpt lat="59.8296333964" lon="16.982611846432">
        <ele>34.4</ele>
        <time>2019-10-22T17:30:51Z</time>
      </trkpt>
      <trkpt lat="59.829801704952" lon="16.982387630607">
        <ele>34</ele>
        <time>2019-10-22T17:30:59Z</time>
      </trkpt>
      <trkpt lat="59.829962385975" lon="16.982190572138">
        <ele>32.2</ele>
        <time>2019-10-22T17:31:07Z</time>
      </trkpt>
      <trkpt lat="59.830131532717" lon="16.982012205306">
        <ele>31</ele>
        <time>2019-10-22T17:31:15Z</time>
      </trkpt>
      <trkpt lat="59.830304283676" lon="16.981816990855">
        <ele>31</ele>
        <time>2019-10-22T17:31:23Z</time>
      </trkpt>
      <trkpt lat="59.830476783178" lon="16.981635355082">
        <ele>31.4</ele>
        <time>2019-10-22T17:31:31Z</time>
      </trkpt>
      <trkpt lat="59.830645594644" lon="16.981458245535">
        <ele>31.4</ele>
        <time>2019-10-22T17:31:39Z</time>
      </trkpt>
      <trkpt lat="59.830813400282" lon="16.981281974178">
        <ele>31.8</ele>
        <time>2019-10-22T17:31:47Z</time>
      </trkpt>
      <trkpt lat="59.830981373558" lon="16.981081814406">
        <ele>32.4</ele>
        <time>2019-10-22T17:31:55Z</time>
      </trkpt>
      <trkpt lat="59.831146413169" lon="16.98088450448">
        <ele>33.4</ele>
        <time>2019-10-22T17:32:03Z</time>
      </trkpt>
      <trkpt lat="59.831305920726" lon="16.980693480979">
        <ele>33.8</ele>
        <time>2019-10-22T17:32:11Z</time>
      </trkpt>
      <trkpt lat="59.831476240934" lon="16.980496590148">
        <ele>34</ele>
        <time>2019-10-22T17:32:19Z</time>
      </trkpt>
      <trkpt lat="59.831651003549" lon="16.980315960203">
        <ele>34.4</ele>
        <time>2019-10-22T17:32:27Z</time>
      </trkpt>
      <trkpt lat="59.831829370381" lon="16.980148154565">
        <ele>35.4</ele>
        <time>2019-10-22T17:32:35Z</time>
      </trkpt>
      <trkpt lat="59.832012095801" lon="16.980030137413">
        <ele>35.4</ele>
        <time>2019-10-22T17:32:43Z</time>
      </trkpt>
      <trkpt lat="59.832189540624" lon="16.979901056153">
        <ele>36.8</ele>
        <time>2019-10-22T17:32:51Z</time>
      </trkpt>
      <trkpt lat="59.832368158913" lon="16.979813716755">
        <ele>37.6</ele>
        <time>2019-10-22T17:32:59Z</time>
      </trkpt>
      <trkpt lat="59.832545519917" lon="16.979751523057">
        <ele>38</ele>
        <time>2019-10-22T17:33:07Z</time>
      </trkpt>
      <trkpt lat="59.832697567583" lon="16.979553710217">
        <ele>38.6</ele>
        <time>2019-10-22T17:33:15Z</time>
      </trkpt>
      <trkpt lat="59.832882053202" lon="16.979481961153">
        <ele>38.6</ele>
        <time>2019-10-22T17:33:23Z</time>
      </trkpt>
      <trkpt lat="59.833076429463" lon="16.979405182949">
        <ele>39</ele>
        <time>2019-10-22T17:33:31Z</time>
      </trkpt>
      <trkpt lat="59.833207522379" lon="16.979382551819">
        <ele>38</ele>
        <time>2019-10-22T17:33:38Z</time>
      </trkpt>
      <trkpt lat="59.833025635149" lon="16.979477770203">
        <ele>37.6</ele>
        <time>2019-10-22T17:33:46Z</time>
      </trkpt>
      <trkpt lat="59.832845005204" lon="16.9795333422">
        <ele>39.6</ele>
        <time>2019-10-22T17:33:54Z</time>
      </trkpt>
      <trkpt lat="59.832683234534" lon="16.979693352671">
        <ele>43.2</ele>
        <time>2019-10-22T17:34:03Z</time>
      </trkpt>
      <trkpt lat="59.83250503534" lon="16.979864762526">
        <ele>42.2</ele>
        <time>2019-10-22T17:34:10Z</time>
      </trkpt>
      <trkpt lat="59.832315855857" lon="16.979927710595">
        <ele>40.6</ele>
        <time>2019-10-22T17:34:17Z</time>
      </trkpt>
      <trkpt lat="59.832123323614" lon="16.980019073305">
        <ele>38.6</ele>
        <time>2019-10-22T17:34:24Z</time>
      </trkpt>
      <trkpt lat="59.831942190755" lon="16.980146478185">
        <ele>38.8</ele>
        <time>2019-10-22T17:34:31Z</time>
      </trkpt>
      <trkpt lat="59.831751334892" lon="16.98028687501">
        <ele>38.2</ele>
        <time>2019-10-22T17:34:39Z</time>
      </trkpt>
      <trkpt lat="59.831571626956" lon="16.980456776123">
        <ele>38.2</ele>
        <time>2019-10-22T17:34:47Z</time>
      </trkpt>
      <trkpt lat="59.831397534893" lon="16.980650900927">
        <ele>39.2</ele>
        <time>2019-10-22T17:34:55Z</time>
      </trkpt>
      <trkpt lat="59.831240541906" lon="16.980842343523">
        <ele>40.6</ele>
        <time>2019-10-22T17:35:02Z</time>
      </trkpt>
      <trkpt lat="59.831072233354" lon="16.981038647621">
        <ele>40.2</ele>
        <time>2019-10-22T17:35:09Z</time>
      </trkpt>
      <trkpt lat="59.830909792132" lon="16.981225983086">
        <ele>38.8</ele>
        <time>2019-10-22T17:35:16Z</time>
      </trkpt>
      <trkpt lat="59.830746177444" lon="16.98141507875">
        <ele>38.2</ele>
        <time>2019-10-22T17:35:23Z</time>
      </trkpt>
      <trkpt lat="59.830590777018" lon="16.981594199953">
        <ele>38</ele>
        <time>2019-10-22T17:35:30Z</time>
      </trkpt>
      <trkpt lat="59.830426575597" lon="16.981743397773">
        <ele>38</ele>
        <time>2019-10-22T17:35:37Z</time>
      </trkpt>
      <trkpt lat="59.830253405543" lon="16.981922938071">
        <ele>36.6</ele>
        <time>2019-10-22T17:35:44Z</time>
      </trkpt>
      <trkpt lat="59.830086689552" lon="16.982112033735">
        <ele>36.8</ele>
        <time>2019-10-22T17:35:51Z</time>
      </trkpt>
      <trkpt lat="59.829922320493" lon="16.982273804405">
        <ele>34.8</ele>
        <time>2019-10-22T17:35:58Z</time>
      </trkpt>
      <trkpt lat="59.829749988629" lon="16.98248544738">
        <ele>35.6</ele>
        <time>2019-10-22T17:36:06Z</time>
      </trkpt>
      <trkpt lat="59.829524683157" lon="16.98288526401">
        <ele>36</ele>
        <time>2019-10-22T17:36:18Z</time>
      </trkpt>
      <trkpt lat="59.829383867237" lon="16.983168907506">
        <ele>35</ele>
        <time>2019-10-22T17:36:26Z</time>
      </trkpt>
      <trkpt lat="59.829256378538" lon="16.983460597626">
        <ele>34</ele>
        <time>2019-10-22T17:36:34Z</time>
      </trkpt>
      <trkpt lat="59.829123106328" lon="16.983771063202">
        <ele>31.6</ele>
        <time>2019-10-22T17:36:42Z</time>
      </trkpt>
      <trkpt lat="59.829010537411" lon="16.984064429702">
        <ele>30.8</ele>
        <time>2019-10-22T17:36:49Z</time>
      </trkpt>
      <trkpt lat="59.82888070178" lon="16.984355197813">
        <ele>30</ele>
        <time>2019-10-22T17:36:57Z</time>
      </trkpt>
      <trkpt lat="59.828730833408" lon="16.984568852444">
        <ele>29.4</ele>
        <time>2019-10-22T17:37:04Z</time>
      </trkpt>
      <trkpt lat="59.828576857905" lon="16.984755852633">
        <ele>31</ele>
        <time>2019-10-22T17:37:11Z</time>
      </trkpt>
      <trkpt lat="59.828398155797" lon="16.984930028515">
        <ele>32.4</ele>
        <time>2019-10-22T17:37:19Z</time>
      </trkpt>
      <trkpt lat="59.828214592187" lon="16.985101103094">
        <ele>33.2</ele>
        <time>2019-10-22T17:37:27Z</time>
      </trkpt>
      <trkpt lat="59.828048965843" lon="16.98525566533">
        <ele>33.4</ele>
        <time>2019-10-22T17:37:34Z</time>
      </trkpt>
      <trkpt lat="59.827885351155" lon="16.985455657464">
        <ele>30.8</ele>
        <time>2019-10-22T17:37:42Z</time>
      </trkpt>
      <trkpt lat="59.82772567596" lon="16.985668809181">
        <ele>29.2</ele>
        <time>2019-10-22T17:37:49Z</time>
      </trkpt>
      <trkpt lat="59.827547392947" lon="16.98586335308">
        <ele>30.6</ele>
        <time>2019-10-22T17:37:57Z</time>
      </trkpt>
      <trkpt lat="59.827377240377" lon="16.986014562556">
        <ele>31</ele>
        <time>2019-10-22T17:38:04Z</time>
      </trkpt>
      <trkpt lat="59.82716995599" lon="16.986026297216">
        <ele>32.6</ele>
        <time>2019-10-22T17:38:12Z</time>
      </trkpt>
      <trkpt lat="59.826978178118" lon="16.985972401599">
        <ele>33.6</ele>
        <time>2019-10-22T17:38:20Z</time>
      </trkpt>
      <trkpt lat="59.826795033603" lon="16.985886906219">
        <ele>32.4</ele>
        <time>2019-10-22T17:38:28Z</time>
      </trkpt>
      <trkpt lat="59.826615996219" lon="16.985827562367">
        <ele>33</ele>
        <time>2019-10-22T17:38:35Z</time>
      </trkpt>
      <trkpt lat="59.826415249714" lon="16.985830496032">
        <ele>34.2</ele>
        <time>2019-10-22T17:38:43Z</time>
      </trkpt>
      <trkpt lat="59.826220119082" lon="16.98593962837">
        <ele>36.4</ele>
        <time>2019-10-22T17:38:50Z</time>
      </trkpt>
      <trkpt lat="59.826042925716" lon="16.986062507024">
        <ele>37.4</ele>
        <time>2019-10-22T17:38:56Z</time>
      </trkpt>
      <trkpt lat="59.825859194468" lon="16.986185134221">
        <ele>37.8</ele>
        <time>2019-10-22T17:39:03Z</time>
      </trkpt>
      <trkpt lat="59.825662303637" lon="16.986311449454">
        <ele>39.4</ele>
        <time>2019-10-22T17:39:10Z</time>
      </trkpt>
      <trkpt lat="59.825466083358" lon="16.986426113846">
        <ele>40</ele>
        <time>2019-10-22T17:39:17Z</time>
      </trkpt>
      <trkpt lat="59.825272377649" lon="16.986537341659">
        <ele>42</ele>
        <time>2019-10-22T17:39:24Z</time>
      </trkpt>
      <trkpt lat="59.825076827922" lon="16.986671200602">
        <ele>44.2</ele>
        <time>2019-10-22T17:39:31Z</time>
      </trkpt>
      <trkpt lat="59.824900221289" lon="16.986770693755">
        <ele>44.4</ele>
        <time>2019-10-22T17:39:37Z</time>
      </trkpt>
      <trkpt lat="59.824703246639" lon="16.986899523558">
        <ele>44</ele>
        <time>2019-10-22T17:39:44Z</time>
      </trkpt>
      <trkpt lat="59.824528148748" lon="16.986980827988">
        <ele>44.8</ele>
        <time>2019-10-22T17:39:50Z</time>
      </trkpt>
      <trkpt lat="59.824330000632" lon="16.987020139099">
        <ele>45</ele>
        <time>2019-10-22T17:39:57Z</time>
      </trkpt>
      <trkpt lat="59.824133277439" lon="16.987096246751">
        <ele>44</ele>
        <time>2019-10-22T17:40:04Z</time>
      </trkpt>
      <trkpt lat="59.823955916435" lon="16.987174366059">
        <ele>41.2</ele>
        <time>2019-10-22T17:40:10Z</time>
      </trkpt>
      <trkpt lat="59.82377780106" lon="16.987266902235">
        <ele>39</ele>
        <time>2019-10-22T17:40:16Z</time>
      </trkpt>
      <trkpt lat="59.823584011532" lon="16.987387098681">
        <ele>37.6</ele>
        <time>2019-10-22T17:40:23Z</time>
      </trkpt>
      <trkpt lat="59.823392401298" lon="16.987513497733">
        <ele>36.6</ele>
        <time>2019-10-22T17:40:30Z</time>
      </trkpt>
      <trkpt lat="59.823199785236" lon="16.98761014104">
        <ele>36.6</ele>
        <time>2019-10-22T17:40:37Z</time>
      </trkpt>
      <trkpt lat="59.823023010965" lon="16.987690858737">
        <ele>35.8</ele>
        <time>2019-10-22T17:40:43Z</time>
      </trkpt>
      <trkpt lat="59.822848751264" lon="16.987803008559">
        <ele>34.8</ele>
        <time>2019-10-22T17:40:49Z</time>
      </trkpt>
      <trkpt lat="59.822653536813" lon="16.987920690435">
        <ele>34.6</ele>
        <time>2019-10-22T17:40:56Z</time>
      </trkpt>
      <trkpt lat="59.822456981258" lon="16.988053962645">
        <ele>35.8</ele>
        <time>2019-10-22T17:41:03Z</time>
      </trkpt>
      <trkpt lat="59.822284230299" lon="16.988157814386">
        <ele>35.4</ele>
        <time>2019-10-22T17:41:09Z</time>
      </trkpt>
      <trkpt lat="59.82210561201" lon="16.988255212064">
        <ele>33.2</ele>
        <time>2019-10-22T17:41:15Z</time>
      </trkpt>
      <trkpt lat="59.821934369793" lon="16.988377587804">
        <ele>32.4</ele>
        <time>2019-10-22T17:41:21Z</time>
      </trkpt>
      <trkpt lat="59.821746531414" lon="16.988506920521">
        <ele>32</ele>
        <time>2019-10-22T17:41:28Z</time>
      </trkpt>
      <trkpt lat="59.821555927008" lon="16.988600378706">
        <ele>32.6</ele>
        <time>2019-10-22T17:41:35Z</time>
      </trkpt>
      <trkpt lat="59.821316707582" lon="16.988725269016">
        <ele>32.6</ele>
        <time>2019-10-22T17:41:44Z</time>
      </trkpt>
      <trkpt lat="59.821125516443" lon="16.98881881102">
        <ele>31.8</ele>
        <time>2019-10-22T17:41:51Z</time>
      </trkpt>
      <trkpt lat="59.820938935349" lon="16.988921154019">
        <ele>31.8</ele>
        <time>2019-10-22T17:41:58Z</time>
      </trkpt>
      <trkpt lat="59.820754030635" lon="16.989026263045">
        <ele>31.4</ele>
        <time>2019-10-22T17:42:05Z</time>
      </trkpt>
      <trkpt lat="59.820577088726" lon="16.989101700145">
        <ele>31.2</ele>
        <time>2019-10-22T17:42:11Z</time>
      </trkpt>
      <trkpt lat="59.820388412157" lon="16.989191637932">
        <ele>31</ele>
        <time>2019-10-22T17:42:18Z</time>
      </trkpt>
      <trkpt lat="59.820205183823" lon="16.989274702561">
        <ele>32.4</ele>
        <time>2019-10-22T17:42:25Z</time>
      </trkpt>
      <trkpt lat="59.820078784771" lon="16.989275708389">
        <ele>33</ele>
        <time>2019-10-22T17:42:30Z</time>
      </trkpt>
      <trkpt lat="59.820034360701" lon="16.989058868636">
        <ele>31.8</ele>
        <time>2019-10-22T17:42:34Z</time>
      </trkpt>
      <trkpt lat="59.819953643004" lon="16.988686293181">
        <ele>30.2</ele>
        <time>2019-10-22T17:42:41Z</time>
      </trkpt>
      <trkpt lat="59.819880385198" lon="16.988334001924">
        <ele>31.4</ele>
        <time>2019-10-22T17:42:48Z</time>
      </trkpt>
      <trkpt lat="59.819810312514" lon="16.987983638504">
        <ele>30.8</ele>
        <time>2019-10-22T17:42:55Z</time>
      </trkpt>
      <trkpt lat="59.819741580934" lon="16.987630928152">
        <ele>29.6</ele>
        <time>2019-10-22T17:43:02Z</time>
      </trkpt>
      <trkpt lat="59.819676956485" lon="16.987268578615">
        <ele>31</ele>
        <time>2019-10-22T17:43:09Z</time>
      </trkpt>
      <trkpt lat="59.819617528814" lon="16.986917293186">
        <ele>31.2</ele>
        <time>2019-10-22T17:43:16Z</time>
      </trkpt>
      <trkpt lat="59.819558604057" lon="16.986556955305">
        <ele>32</ele>
        <time>2019-10-22T17:43:23Z</time>
      </trkpt>
      <trkpt lat="59.819502612965" lon="16.986201730383">
        <ele>32</ele>
        <time>2019-10-22T17:43:30Z</time>
      </trkpt>
      <trkpt lat="59.819446370416" lon="16.98581222349">
        <ele>33.6</ele>
        <time>2019-10-22T17:43:38Z</time>
      </trkpt>
      <trkpt lat="59.81939825831" lon="16.985444760994">
        <ele>34.6</ele>
        <time>2019-10-22T17:43:45Z</time>
      </trkpt>
    </trkseg>
  </trk>
</gpx>